Time;durP1;ratioP1;P1;durP2;ratioP2;P2;SDS_P1;SDS_P2;PMS_P1;PMS_P2;Temp;Humidity;BMP_temperature;BMP_pressure;BME280_temperature;BME280_humidity;BME280_pressure;Samples;Min_cycle;Max_cycle;Signal;HPM_P1;HPM_P2
2021/03/24 00:01:46;;;;;;;16.02;11.00;;;5.40;75.20;;;4.52;59.15;95592.91;5016791;28;20224;-83
2021/03/24 00:04:13;;;;;;;16.73;10.60;;;5.40;75.20;;;4.55;59.16;95596.06;5020017;28;20209;-83
2021/03/24 00:06:41;;;;;;;15.85;11.10;;;5.40;75.30;;;4.52;59.14;95592.91;5016465;28;20229;-84
2021/03/24 00:09:15;;;;;;;18.08;12.25;;;5.40;75.20;;;4.55;59.02;95608.25;5016447;28;20200;-83
2021/03/24 00:11:41;;;;;;;18.55;11.63;;;5.40;75.30;;;4.55;59.22;95606.44;5032703;28;20220;-82
2021/03/24 00:14:08;;;;;;;18.75;12.23;;;5.40;75.20;;;4.57;59.38;95606.34;5016443;28;20207;-83
2021/03/24 00:16:35;;;;;;;17.40;12.10;;;5.40;75.30;;;4.57;59.77;95606.34;5019767;28;20277;-84
2021/03/24 00:19:02;;;;;;;17.23;11.10;;;5.40;75.30;;;4.53;59.12;95600.59;5035920;28;20224;-83
2021/03/24 00:21:29;;;;;;;17.05;10.90;;;5.40;75.40;;;4.58;59.13;95605.38;5051648;28;20230;-84
2021/03/24 00:23:56;;;;;;;19.20;12.07;;;5.40;75.30;;;4.58;59.19;95602.78;5052454;28;20717;-84
2021/03/24 00:26:23;;;;;;;17.52;10.93;;;5.40;75.30;;;4.58;59.19;95595.00;5035511;28;20299;-83
2021/03/24 00:28:53;;;;;;;19.95;11.50;;;5.40;75.30;;;4.57;59.47;95598.53;5035872;28;20246;-83
2021/03/24 00:31:21;;;;;;;17.90;12.15;;;5.40;75.30;;;4.61;59.50;95602.50;5052245;28;20299;-82
2021/03/24 00:33:49;;;;;;;16.23;11.13;;;5.40;75.30;;;4.59;59.12;95597.44;5052348;28;20196;-82
2021/03/24 00:36:17;;;;;;;18.00;12.55;;;5.40;75.30;;;4.61;59.01;95600.72;5051964;28;20230;-83
2021/03/24 00:38:43;;;;;;;16.67;11.50;;;5.40;75.30;;;4.62;59.17;95599.75;5053763;28;20286;-82
2021/03/24 00:41:11;;;;;;;18.63;11.48;;;5.40;75.30;;;4.60;59.56;95596.50;5035794;28;20298;-83
2021/03/24 00:43:38;;;;;;;18.20;12.02;;;5.40;75.30;;;4.60;59.06;95599.09;5052197;28;20235;-83
2021/03/24 00:46:05;;;;;;;18.52;12.40;;;5.40;75.30;;;4.62;59.21;95596.34;5052020;28;20573;-83
2021/03/24 00:48:34;;;;;;;18.27;12.15;;;5.40;75.30;;;4.62;59.18;95593.75;5052293;28;20211;-83
2021/03/24 00:51:04;;;;;;;19.17;12.07;;;5.50;75.40;;;4.61;59.28;95592.94;5052405;28;20263;-83
2021/03/24 00:53:30;;;;;;;18.95;12.20;;;5.40;75.30;;;4.61;59.18;95592.94;5052119;28;20192;-83
2021/03/24 00:55:57;;;;;;;19.98;12.65;;;5.40;75.30;;;4.59;58.88;95592.25;5018887;28;20223;-83
2021/03/24 00:58:24;;;;;;;18.25;11.88;;;5.40;75.30;;;4.61;59.09;95584.31;5034910;28;20207;-84
2021/03/24 01:00:52;;;;;;;20.02;13.18;;;5.40;75.30;;;4.60;59.21;95587.84;5035376;28;20211;-83
2021/03/24 01:03:19;;;;;;;18.00;11.63;;;5.40;75.40;;;4.60;59.20;95588.69;5018652;28;20211;-83
2021/03/24 01:05:48;;;;;;;16.60;11.48;;;5.40;75.30;;;4.60;58.82;95586.09;5035236;28;20223;-83
2021/03/24 01:08:21;;;;;;;16.98;11.75;;;5.40;75.30;;;4.56;59.17;95584.72;5051928;28;20223;-83
2021/03/24 01:10:51;;;;;;;18.38;12.55;;;5.40;75.40;;;4.58;59.43;95584.59;5051940;28;20199;-82
2021/03/24 01:13:18;;;;;;;18.33;12.68;;;5.40;75.30;;;4.58;59.30;95582.81;5051550;28;20199;-83
2021/03/24 01:15:45;;;;;;;17.75;12.27;;;5.40;75.20;;;4.57;59.18;95581.16;5051462;28;20636;-83
2021/03/24 01:18:13;;;;;;;21.92;13.00;;;5.50;75.30;;;4.57;58.95;95582.94;5051700;28;20242;-82
2021/03/24 01:20:42;;;;;;;17.23;11.15;;;5.40;75.40;;;4.57;59.12;95572.56;5034606;28;20242;-83
2021/03/24 01:23:09;;;;;;;20.88;13.30;;;5.40;75.40;;;4.54;59.36;95565.88;5051230;28;20204;-82
2021/03/24 01:25:37;;;;;;;20.48;13.50;;;5.40;75.40;;;4.58;59.51;95576.81;5051605;28;20192;-83
2021/03/24 01:28:09;;;;;;;19.58;13.73;;;5.40;75.40;;;4.57;59.13;95572.56;5051659;28;20188;-83
2021/03/24 01:30:37;;;;;;;18.55;12.25;;;5.40;75.40;;;4.56;59.26;95568.31;5034997;28;20204;-83
2021/03/24 01:33:04;;;;;;;18.75;12.75;;;5.40;75.40;;;4.55;59.20;95562.28;5055392;28;20245;-83
2021/03/24 01:35:32;;;;;;;17.50;12.02;;;5.40;75.40;;;4.56;59.54;95566.53;5054787;28;20195;-83
2021/03/24 01:37:59;;;;;;;22.85;13.80;;;5.40;75.40;;;4.51;59.01;95560.94;5039152;28;20219;-83
2021/03/24 01:40:34;;;;;;;20.60;13.90;;;5.40;75.40;;;4.55;59.57;95562.28;5039168;28;20247;-83
2021/03/24 01:43:06;;;;;;;22.15;13.70;;;5.40;75.50;;;4.55;59.35;95564.88;5055068;28;20226;-83
2021/03/24 01:45:34;;;;;;;18.83;12.55;;;5.40;75.50;;;4.55;59.50;95562.28;5055623;28;20198;-82
2021/03/24 01:48:04;;;;;;;21.23;13.63;;;5.40;75.40;;;4.55;59.36;95561.47;5071901;28;20674;-82
2021/03/24 01:50:38;;;;;;;20.52;13.68;;;5.40;75.40;;;4.54;59.52;95555.47;5055205;28;20242;-83
2021/03/24 01:53:17;;;;;;;21.80;14.23;;;5.40;75.60;;;4.55;59.70;95556.28;5039617;28;20215;-82
2021/03/24 01:55:45;;;;;;;19.48;13.05;;;5.40;75.50;;;4.55;59.95;95553.69;5055261;28;20191;-82
2021/03/24 01:58:12;;;;;;;21.33;13.45;;;5.40;75.50;;;4.54;59.63;95545.09;5038764;28;20208;-82
2021/03/24 02:00:47;;;;;;;20.30;13.05;;;5.40;75.50;;;4.54;59.52;95544.25;5052795;28;20212;-83
2021/03/24 02:03:14;;;;;;;19.50;13.27;;;5.40;75.60;;;4.53;59.66;95540.00;5038625;28;20245;-83
2021/03/24 02:05:44;;;;;;;20.25;12.65;;;5.40;75.50;;;4.53;59.34;95547.78;5054928;28;20237;-83
2021/03/24 02:08:25;;;;;;;17.52;12.02;;;5.40;75.50;;;4.51;59.57;95547.94;5049020;28;20193;-82
2021/03/24 02:11:09;;;;;;;20.27;12.93;;;5.40;75.60;;;4.53;59.40;95550.41;5002757;28;20197;-83
2021/03/24 02:13:45;;;;;;;21.23;13.73;;;5.40;75.60;;;4.48;59.67;95545.63;5034657;28;20674;-83
2021/03/24 02:16:29;;;;;;;17.58;12.15;;;5.40;75.60;;;4.53;59.25;95550.41;5018477;28;20694;-83
2021/03/24 02:18:59;;;;;;;20.73;13.48;;;5.40;76.50;;;4.54;59.79;95559.84;5022795;28;20321;-83
2021/03/24 02:21:33;;;;;;;20.05;12.40;;;5.40;75.60;;;4.53;59.36;95550.41;5054633;28;20231;-82
2021/03/24 02:24:23;;;;;;;19.80;12.85;;;5.40;75.60;;;4.53;59.68;95538.25;5054976;28;20458;-83
2021/03/24 02:27:13;;;;;;;18.30;11.85;;;5.40;75.70;;;4.53;59.05;95548.63;5038177;28;20220;-83
2021/03/24 02:29:58;;;;;;;19.58;12.70;;;5.40;75.70;;;4.53;59.48;95550.41;5054853;28;20203;-83
2021/03/24 02:32:29;;;;;;;18.33;12.45;;;5.40;75.60;;;4.53;59.42;95551.22;5037919;28;20228;-83
2021/03/24 02:35:06;;;;;;;19.27;12.43;;;5.40;75.60;;;4.48;59.21;95538.66;5037661;28;20258;-83
2021/03/24 02:37:35;;;;;;;19.27;12.60;;;5.40;75.70;;;4.52;59.37;95544.41;5037841;28;20222;-83
2021/03/24 02:40:11;;;;;;;17.73;12.13;;;5.40;75.60;;;4.53;59.26;95551.22;5054358;28;20224;-84
2021/03/24 02:42:45;;;;;;;17.38;11.73;;;5.30;75.60;;;4.55;59.24;95545.88;5054172;28;20685;-83
2021/03/24 02:45:19;;;;;;;17.40;11.02;;;5.40;75.70;;;4.55;59.35;95546.69;5054590;28;20195;-82
2021/03/24 02:47:47;;;;;;;16.65;11.25;;;5.40;75.60;;;4.56;59.37;95548.34;5054468;28;20207;-83
2021/03/24 02:50:15;;;;;;;18.00;12.50;;;5.30;75.50;;;4.54;59.42;95544.25;5054362;28;20286;-82
2021/03/24 02:52:42;;;;;;;16.33;11.20;;;5.40;75.50;;;4.56;59.26;95534.53;5054000;28;20238;-84
2021/03/24 02:55:13;;;;;;;18.23;11.80;;;5.40;75.60;;;4.55;59.43;95536.31;5049761;28;20197;-83
2021/03/24 02:57:40;;;;;;;20.48;12.13;;;5.40;75.60;;;4.54;59.35;95534.69;5027563;28;20238;-83
2021/03/24 03:00:15;;;;;;;17.20;11.70;;;5.40;75.60;;;4.55;59.46;95538.09;5048587;28;20298;-82
2021/03/24 03:02:52;;;;;;;19.30;12.35;;;5.40;75.60;;;4.52;59.30;95534.00;5030256;28;20227;-82
2021/03/24 03:05:26;;;;;;;18.45;11.98;;;5.40;75.70;;;4.52;59.55;95531.41;5025900;28;20223;-82
2021/03/24 03:08:28;;;;;;;21.20;12.57;;;5.40;75.60;;;4.48;59.52;95530.84;5030670;28;20216;-83
2021/03/24 03:11:24;;;;;;;16.65;11.65;;;5.40;75.70;;;4.51;59.28;95534.97;5027788;28;20204;-82
2021/03/24 03:13:59;;;;;;;17.75;11.35;;;5.50;75.70;;;4.52;59.43;95535.75;5021803;28;20223;-82
2021/03/24 03:17:19;;;;;;;16.58;11.38;;;5.40;75.60;;;4.51;59.56;95536.75;5037996;28;20219;-83
2021/03/24 03:20:17;;;;;;;20.08;11.38;;;5.40;75.60;;;4.52;59.48;95547.00;5039781;28;20272;-84
2021/03/24 03:22:51;;;;;;;17.67;11.88;;;5.40;75.60;;;4.52;59.57;95546.16;4997338;28;20577;-82
2021/03/24 03:25:29;;;;;;;16.60;10.50;;;5.40;75.50;;;4.53;59.31;95548.63;5030563;28;20197;-83
2021/03/24 03:28:01;;;;;;;13.95;10.07;;;5.40;75.70;;;4.56;59.69;95547.53;5039601;28;20291;-81
2021/03/24 03:30:32;;;;;;;18.25;11.13;;;5.40;75.60;;;4.59;59.15;95549.84;5029431;28;20231;-83
2021/03/24 03:33:04;;;;;;;16.27;10.38;;;5.40;75.60;;;4.60;59.05;95547.13;5043766;28;20283;-83
2021/03/24 03:35:34;;;;;;;15.95;10.10;;;5.40;75.60;;;4.60;59.11;95549.72;5024078;28;20659;-83
2021/03/24 03:38:04;;;;;;;15.38;10.02;;;5.40;75.60;;;4.62;59.10;95546.97;5017690;28;20243;-82
2021/03/24 03:40:35;;;;;;;16.63;10.63;;;5.40;75.60;;;4.62;59.37;95547.78;5041165;28;20768;-83
2021/03/24 03:43:08;;;;;;;15.27;10.68;;;5.40;75.60;;;4.62;59.38;95542.59;5034709;28;20254;-82
2021/03/24 03:45:42;;;;;;;15.45;10.38;;;5.40;75.60;;;4.62;59.46;95545.19;5013432;28;20203;-82
2021/03/24 03:48:14;;;;;;;16.80;10.43;;;5.40;75.60;;;4.61;59.13;95537.53;5009415;28;20199;-82
2021/03/24 03:50:47;;;;;;;15.23;9.43;;;5.40;75.60;;;4.61;59.41;95545.34;5045539;28;20222;-83
2021/03/24 03:53:54;;;;;;;14.75;10.25;;;5.40;75.50;;;4.59;59.30;95544.66;5009582;28;20197;-82
2021/03/24 03:56:32;;;;;;;17.75;9.98;;;5.40;75.60;;;4.60;59.25;95546.28;5024774;28;20229;-82
2021/03/24 03:59:31;;;;;;;15.35;9.63;;;5.40;75.50;;;4.58;59.15;95541.25;5048148;28;20196;-81
2021/03/24 04:02:06;;;;;;;15.13;9.68;;;5.40;75.70;;;4.57;59.47;95538.78;5039877;28;20224;-83
2021/03/24 04:04:57;;;;;;;16.08;9.90;;;5.40;75.60;;;4.55;59.62;95545.88;5030361;28;20210;-82
2021/03/24 04:07:48;;;;;;;13.85;9.32;;;5.40;75.70;;;4.56;59.36;95542.34;5033134;28;20228;-83
2021/03/24 04:10:15;;;;;;;16.48;9.70;;;5.40;75.60;;;4.57;59.25;95541.38;5042626;28;20858;-82
2021/03/24 04:12:42;;;;;;;14.65;10.05;;;5.40;75.50;;;4.53;59.04;95546.03;5047464;28;20271;-82
2021/03/24 04:15:19;;;;;;;14.82;10.13;;;5.40;75.60;;;4.59;59.34;95545.47;5044917;28;20188;-82
2021/03/24 04:17:50;;;;;;;15.18;9.88;;;5.40;75.60;;;4.60;59.20;95546.28;5048336;28;20250;-82
2021/03/24 04:20:23;;;;;;;12.55;8.77;;;5.40;75.60;;;4.61;59.16;95550.53;5041574;28;20216;-82
2021/03/24 04:22:55;;;;;;;16.27;10.32;;;5.40;75.60;;;4.58;59.07;95543.84;5033458;28;20224;-82
2021/03/24 04:25:39;;;;;;;14.98;10.43;;;5.40;75.60;;;4.58;59.34;95546.44;5032446;28;20204;-83
2021/03/24 04:28:13;;;;;;;16.02;10.35;;;5.40;75.60;;;4.56;59.13;95543.16;5046612;28;20191;-83
2021/03/24 04:30:55;;;;;;;15.45;10.20;;;5.40;75.60;;;4.58;59.41;95550.81;5049123;28;20197;-82
2021/03/24 04:33:22;;;;;;;14.85;10.13;;;5.40;75.60;;;4.59;59.16;95549.84;5024088;28;20204;-83
2021/03/24 04:35:51;;;;;;;14.73;11.18;;;5.40;75.50;;;4.61;59.11;95540.13;5043332;28;20202;-83
2021/03/24 04:38:31;;;;;;;15.10;10.45;;;5.40;75.60;;;4.59;59.00;95544.66;5025772;28;20243;-83
2021/03/24 04:41:07;;;;;;;15.50;10.32;;;5.40;75.70;;;4.62;58.91;95541.78;5059669;28;20220;-83
2021/03/24 04:43:38;;;;;;;15.88;9.95;;;5.40;75.60;;;4.60;59.40;95541.09;5048462;28;20188;-83
2021/03/24 04:46:16;;;;;;;15.68;10.70;;;5.40;75.60;;;4.62;59.17;95552.16;5007712;28;20240;-82
2021/03/24 04:48:55;;;;;;;14.80;9.85;;;5.40;75.60;;;4.61;59.42;95547.94;5040479;28;20185;-83
2021/03/24 04:51:28;;;;;;;17.55;10.20;;;5.50;75.60;;;4.61;59.17;95555.72;5008094;28;20226;-83
2021/03/24 04:54:10;;;;;;;16.55;11.13;;;5.40;75.50;;;4.61;59.45;95553.97;5041001;28;20192;-83
2021/03/24 04:56:40;;;;;;;16.35;10.10;;;5.40;75.50;;;4.61;59.33;95555.72;5025636;28;20216;-83
2021/03/24 04:59:14;;;;;;;15.45;9.80;;;5.40;75.50;;;4.61;59.39;95560.91;5028778;28;20201;-83
2021/03/24 05:01:45;;;;;;;13.00;9.80;;;5.40;75.60;;;4.62;59.32;95552.97;5013807;28;20602;-84
2021/03/24 05:04:16;;;;;;;15.65;10.55;;;5.50;75.60;;;4.64;59.37;95556.25;5013655;28;20520;-84
2021/03/24 05:07:14;;;;;;;15.82;9.88;;;5.40;75.50;;;4.63;59.15;95562.41;5013384;28;20228;-84
2021/03/24 05:09:44;;;;;;;16.10;10.88;;;5.40;75.70;;;4.62;59.26;95568.56;5013568;28;20205;-84
2021/03/24 05:12:13;;;;;;;24.60;16.98;;;5.50;75.60;;;4.64;59.10;95565.84;5029940;28;20337;-84
2021/03/24 05:14:56;;;;;;;17.50;12.18;;;5.40;75.50;;;4.62;59.17;95563.38;5013719;28;20287;-84
2021/03/24 05:17:28;;;;;;;17.73;11.35;;;5.40;75.70;;;4.64;59.11;95569.25;5029997;28;20208;-84
2021/03/24 05:20:22;;;;;;;19.98;13.73;;;5.40;75.60;;;4.64;59.08;95569.25;5014164;28;20529;-84
2021/03/24 05:22:50;;;;;;;17.08;11.43;;;5.50;75.70;;;4.68;58.86;95569.81;4997592;28;20294;-84
2021/03/24 05:25:39;;;;;;;18.95;11.68;;;5.50;75.60;;;4.68;58.86;95576.78;5013824;28;20203;-84
2021/03/24 05:28:18;;;;;;;18.30;11.60;;;5.50;75.60;;;4.70;59.05;95575.69;5030023;28;20189;-83
2021/03/24 05:30:58;;;;;;;15.57;10.30;;;5.50;75.70;;;4.72;59.08;95575.53;5030331;28;20180;-84
2021/03/24 05:33:48;;;;;;;15.98;9.50;;;5.50;75.70;;;4.75;59.67;95583.06;5016014;28;20205;-85
2021/03/24 05:36:21;;;;;;;12.43;8.90;;;5.50;75.70;;;4.76;59.15;95584.69;5015802;28;20248;-84
2021/03/24 05:38:51;;;;;;;16.05;10.38;;;5.50;75.60;;;4.78;59.22;95583.59;5032118;28;20213;-84
2021/03/24 05:41:27;;;;;;;15.98;10.00;;;5.60;75.70;;;4.81;59.11;95592.91;5015336;28;20224;-85
2021/03/24 05:44:38;;;;;;;14.38;9.35;;;5.50;75.50;;;4.80;59.21;95592.06;5015227;28;20625;-85
2021/03/24 05:47:23;;;;;;;15.25;9.82;;;5.60;75.70;;;4.77;59.29;95592.38;5015352;28;20216;-85
2021/03/24 05:50:21;;;;;;;12.30;7.80;;;5.60;75.70;;;4.86;59.14;95595.91;5031990;28;20295;-85
2021/03/24 05:52:56;;;;;;;12.43;8.30;;;5.60;75.70;;;4.88;59.08;95599.19;5031520;28;20752;-84
2021/03/24 05:55:31;;;;;;;13.70;8.55;;;5.60;75.70;;;4.88;59.17;95601.78;5031939;28;20187;-85
2021/03/24 05:58:47;;;;;;;11.95;8.82;;;5.60;75.60;;;4.91;58.97;95604.09;5031976;28;20250;-83
2021/03/24 06:01:22;;;;;;;13.90;9.07;;;5.60;75.70;;;4.92;58.95;95603.16;5015573;28;20236;-85
2021/03/24 06:04:26;;;;;;;11.45;8.43;;;5.70;75.70;;;4.95;59.16;95594.25;5032623;28;20223;-85
2021/03/24 06:07:42;;;;;;;14.80;8.02;;;5.70;75.80;;;5.00;59.22;95607.63;5043605;28;20303;-85
2021/03/24 06:10:44;;;;;;;11.90;7.78;;;5.70;75.80;;;5.02;59.03;95610.94;5051813;28;20204;-85
2021/03/24 06:14:07;;;;;;;12.32;7.88;;;5.70;75.80;;;5.05;59.09;95620.22;5048759;28;20211;-85
2021/03/24 06:17:01;;;;;;;13.93;7.90;;;5.80;75.80;;;5.07;59.11;95618.31;5051610;28;20261;-85
2021/03/24 06:19:56;;;;;;;12.63;8.10;;;5.80;75.70;;;5.09;59.33;95616.38;5054305;28;20220;-85
2021/03/24 06:22:55;;;;;;;14.52;8.75;;;5.80;75.70;;;5.12;59.09;95614.31;5038503;28;20224;-85
2021/03/24 06:25:40;;;;;;;15.65;9.55;;;5.80;75.60;;;5.13;59.25;95615.97;5055035;28;20723;-85
2021/03/24 06:28:18;;;;;;;14.32;8.63;;;5.90;75.70;;;5.20;59.17;95613.63;5038502;28;20700;-85
2021/03/24 06:30:59;;;;;;;14.52;9.25;;;5.90;75.70;;;5.20;59.14;95613.63;5051634;28;20219;-84
2021/03/24 06:33:46;;;;;;;14.95;9.30;;;5.90;75.70;;;5.28;58.92;95611.16;5041098;28;20538;-85
2021/03/24 06:36:55;;;;;;;16.17;10.25;;;5.90;75.60;;;5.28;58.86;95598.16;5026856;28;20220;-84
2021/03/24 06:39:36;;;;;;;18.58;10.38;;;6.00;75.50;;;5.32;59.10;95597.84;5049397;28;20248;-85
2021/03/24 06:42:29;;;;;;;13.55;9.45;;;6.10;75.60;;;5.38;58.92;95611.13;5034423;28;20318;-84
2021/03/24 06:45:14;;;;;;;12.18;8.73;;;6.00;75.50;;;5.44;58.98;95607.94;5032838;28;20274;-85
2021/03/24 06:47:55;;;;;;;14.43;9.07;;;6.10;75.50;;;5.53;58.71;95608.03;5049514;28;20239;-84
2021/03/24 06:51:12;;;;;;;17.55;10.10;;;6.10;75.50;;;5.58;58.92;95604.03;5032271;28;20275;-85
2021/03/24 06:54:17;;;;;;;17.27;10.75;;;6.20;75.50;;;5.60;58.49;95601.28;5032298;28;20197;-84
2021/03/24 06:57:41;;;;;;;16.15;10.55;;;6.20;75.20;;;5.65;58.27;95612.13;5038970;28;20223;-83
2021/03/24 07:00:25;;;;;;;16.58;10.45;;;6.30;75.30;;;5.70;58.55;95612.50;5031358;28;20617;-85
2021/03/24 07:03:20;;;;;;;20.90;11.85;;;6.40;75.30;;;5.79;58.22;95623.00;5043152;28;20251;-85
2021/03/24 07:06:40;;;;;;;13.98;9.57;;;6.40;75.10;;;5.83;58.41;95622.56;5051878;28;20611;-84
2021/03/24 07:09:49;;;;;;;19.42;10.90;;;6.50;75.20;;;5.87;58.41;95626.53;5041388;28;20196;-85
2021/03/24 07:12:50;;;;;;;20.23;12.48;;;6.50;75.10;;;5.90;58.12;95630.63;5031461;28;20223;-84
2021/03/24 07:15:40;;;;;;;18.35;11.18;;;6.60;75.00;;;5.95;57.97;95633.59;5048759;28;20208;-86
2021/03/24 07:18:54;;;;;;;16.98;10.63;;;6.60;75.00;;;5.99;58.17;95629.75;5025341;28;20264;-88
2021/03/24 07:22:17;;;;;;;17.27;11.68;;;6.70;75.10;;;6.03;57.83;95627.69;5041566;28;20235;-87
2021/03/24 07:25:11;;;;;;;16.65;10.40;;;6.70;75.00;;;6.07;57.68;95635.06;5031242;28;20234;-88
2021/03/24 07:27:50;;;;;;;16.48;10.55;;;6.70;74.90;;;6.17;57.79;95640.22;5041692;28;20212;-86
2021/03/24 07:30:34;;;;;;;17.08;11.25;;;6.80;75.00;;;6.22;57.77;95634.59;5043057;28;20197;-85
2021/03/24 07:33:56;;;;;;;17.70;11.32;;;6.80;74.80;;;6.29;57.81;95632.22;5047829;28;20287;-86
2021/03/24 07:37:02;;;;;;;18.55;11.30;;;6.90;75.00;;;6.34;57.42;95640.41;5029439;28;20221;-85
2021/03/24 07:39:57;;;;;;;15.82;10.65;;;6.90;74.60;;;6.41;57.58;95636.25;5037061;28;20223;-86
2021/03/24 07:42:37;;;;;;;15.95;10.48;;;7.00;74.90;;;6.50;57.35;95643.16;5037747;28;20550;-85
2021/03/24 07:45:28;;;;;;;17.70;10.93;;;7.00;74.70;;;6.55;57.00;95640.97;5038910;28;20279;-85
2021/03/24 07:48:34;;;;;;;16.08;10.93;;;7.10;74.70;;;6.58;56.89;95639.84;5037854;28;20251;-85
2021/03/24 07:51:22;;;;;;;15.82;11.00;;;7.20;74.40;;;6.63;56.78;95637.59;5027904;28;20227;-86
2021/03/24 07:54:01;;;;;;;14.10;9.75;;;7.20;74.00;;;6.75;57.05;95637.34;5046529;28;20199;-85
2021/03/24 07:56:47;;;;;;;14.45;10.25;;;7.20;74.10;;;6.83;56.84;95632.22;5010543;28;20223;-86
2021/03/24 07:59:35;;;;;;;14.13;10.48;;;7.30;74.00;;;6.94;56.78;95639.00;5030471;28;20662;-85
2021/03/24 08:02:17;;;;;;;19.25;10.40;;;7.40;74.10;;;7.00;56.13;95636.59;5048141;28;20220;-85
2021/03/24 08:05:25;;;;;;;16.42;11.40;;;7.40;74.00;;;7.03;55.90;95635.47;5042493;28;20200;-84
2021/03/24 08:08:24;;;;;;;15.90;10.43;;;7.50;74.10;;;7.08;55.91;95637.63;5036220;28;20220;-85
2021/03/24 08:11:00;;;;;;;13.90;9.63;;;7.60;74.20;;;7.18;55.92;95638.34;5051928;28;20539;-86
2021/03/24 08:13:45;;;;;;;14.70;10.25;;;7.60;74.20;;;7.27;55.97;95640.03;5017060;28;20561;-86
2021/03/24 08:16:22;;;;;;;14.10;10.30;;;7.70;74.30;;;7.37;55.61;95642.53;5028244;28;20217;-86
2021/03/24 08:19:17;;;;;;;15.60;10.63;;;7.80;73.90;;;7.40;54.84;95638.81;5042613;28;20231;-86
2021/03/24 08:22:05;;;;;;;16.33;10.98;;;7.80;73.50;;;7.35;54.39;95636.69;5037768;28;20231;-86
2021/03/24 08:24:38;;;;;;;15.60;10.95;;;7.90;72.90;;;7.38;54.26;95628.53;5016119;28;20682;-86
2021/03/24 08:27:36;;;;;;;15.15;10.35;;;7.90;73.00;;;7.47;54.13;95625.00;5037513;28;20213;-85
2021/03/24 08:30:21;;;;;;;13.68;9.90;;;8.00;73.00;;;7.56;54.74;95623.25;5058082;28;20200;-85
2021/03/24 08:33:15;;;;;;;12.93;9.30;;;8.00;73.10;;;7.67;54.53;95627.38;5041527;28;20227;-85
2021/03/24 08:36:18;;;;;;;13.13;9.20;;;8.20;73.20;;;7.78;54.95;95640.16;5038392;28;20182;-86
2021/03/24 08:39:46;;;;;;;13.18;9.38;;;8.20;73.20;;;7.82;54.00;95625.00;5040453;28;20207;-84
2021/03/24 08:42:40;;;;;;;14.48;10.20;;;8.20;73.20;;;7.85;53.67;95625.50;5045641;28;20310;-85
2021/03/24 08:45:25;;;;;;;13.43;9.75;;;8.30;72.60;;;7.91;54.20;95620.63;5032754;28;20663;-86
2021/03/24 08:47:59;;;;;;;13.70;9.82;;;8.40;72.70;;;8.00;54.55;95612.66;5041601;28;20220;-85
2021/03/24 08:50:37;;;;;;;16.88;11.57;;;8.40;72.80;;;8.06;52.62;95620.84;5048790;28;20191;-85
2021/03/24 08:53:20;;;;;;;16.73;11.82;;;8.50;72.30;;;8.06;52.14;95621.66;5027707;28;20206;-85
2021/03/24 08:56:25;;;;;;;15.65;11.40;;;8.50;71.70;;;8.04;52.26;95614.97;5047071;28;20212;-85
2021/03/24 08:59:42;;;;;;;16.30;11.27;;;8.60;71.70;;;8.08;52.51;95611.03;5039174;28;20204;-85
2021/03/24 09:02:39;;;;;;;18.52;11.15;;;8.60;71.50;;;8.13;52.26;95620.06;5003307;28;20291;-86
2021/03/24 09:05:31;;;;;;;16.67;11.05;;;8.70;71.80;;;8.13;52.45;95614.81;5028690;28;20200;-86
2021/03/24 09:08:18;;;;;;;18.85;11.50;;;8.70;71.60;;;8.20;53.01;95617.59;5044080;28;20209;-86
2021/03/24 09:11:06;;;;;;;19.90;11.40;;;8.70;71.80;;;8.25;52.68;95612.75;5012968;28;20197;-88
2021/03/24 09:13:52;;;;;;;17.77;11.30;;;8.70;71.50;;;8.29;52.59;95611.44;5029394;28;20192;-86
2021/03/24 09:17:04;;;;;;;19.00;12.38;;;8.80;71.40;;;8.30;52.54;95605.22;5004164;28;20224;-86
2021/03/24 09:20:04;;;;;;;18.80;11.85;;;8.80;71.60;;;8.32;52.27;95602.44;5030436;28;20194;-85
2021/03/24 09:22:43;;;;;;;21.65;13.55;;;8.80;71.40;;;8.29;50.84;95611.44;5031123;28;20225;-86
2021/03/24 09:25:25;;;;;;;20.20;12.57;;;8.90;70.80;;;8.27;50.88;95599.50;5030517;28;20247;-85
2021/03/24 09:28:26;;;;;;;21.20;12.95;;;8.90;71.50;;;8.31;51.86;95606.88;5032256;28;20212;-86
2021/03/24 09:31:28;;;;;;;22.58;13.63;;;8.90;71.10;;;8.28;51.70;95604.56;5031079;28;20216;-86
2021/03/24 09:34:34;;;;;;;24.42;13.45;;;8.90;70.70;;;8.29;52.19;95603.59;5041944;28;20634;-85
2021/03/24 09:37:08;;;;;;;21.98;13.43;;;8.90;71.00;;;8.33;51.35;95598.88;5037489;28;20251;-85
2021/03/24 09:39:54;;;;;;;20.40;13.25;;;8.90;70.50;;;8.29;51.45;95593.13;5028546;28;20288;-85
2021/03/24 09:42:35;;;;;;;20.20;12.88;;;8.90;70.60;;;8.27;50.85;95600.31;5037568;28;20235;-86
2021/03/24 09:45:16;;;;;;;22.13;14.20;;;8.90;70.20;;;8.24;51.35;95602.44;5035738;28;20197;-86
2021/03/24 09:48:14;;;;;;;22.35;13.13;;;8.90;70.30;;;8.22;51.39;95596.56;5034116;28;20232;-85
2021/03/24 09:51:05;;;;;;;21.23;13.75;;;8.80;70.30;;;8.23;51.56;95592.97;5035488;28;20195;-86
2021/03/24 09:53:40;;;;;;;22.23;13.48;;;8.90;70.60;;;8.26;51.79;95593.44;5033509;28;20204;-86
2021/03/24 09:56:17;;;;;;;21.52;13.15;;;8.80;70.60;;;8.28;51.76;95594.13;5035482;28;20695;-85
2021/03/24 09:59:24;;;;;;;20.48;13.50;;;8.90;70.70;;;8.35;51.74;95594.31;5055639;28;20211;-86
2021/03/24 10:02:13;;;;;;;21.08;13.55;;;8.90;70.60;;;8.36;51.78;95569.81;5033945;28;20580;-86
2021/03/24 10:04:52;;;;;;;20.90;12.95;;;8.90;70.50;;;8.49;51.83;95574.56;5034574;28;20239;-86
2021/03/24 10:07:24;;;;;;;19.80;12.35;;;8.90;71.00;;;8.61;51.89;95575.06;5038315;28;20220;-85
2021/03/24 10:10:12;;;;;;;19.88;13.00;;;9.00;71.10;;;8.71;51.38;95578.34;5021990;28;20567;-86
2021/03/24 10:13:02;;;;;;;24.02;15.55;;;9.10;70.90;;;8.76;50.85;95576.06;5041626;28;20227;-85
2021/03/24 10:15:51;;;;;;;26.00;14.55;;;9.10;70.40;;;8.78;51.41;95566.25;5046249;28;20229;-87
2021/03/24 10:18:33;;;;;;;22.73;13.38;;;9.20;70.50;;;8.85;51.34;95569.03;5019392;28;20205;-86
2021/03/24 10:21:17;;;;;;;22.88;15.18;;;9.20;70.30;;;8.84;50.77;95566.56;5021725;28;20259;-85
2021/03/24 10:23:49;;;;;;;24.80;14.75;;;9.30;70.20;;;8.85;51.07;95557.72;5036974;28;20210;-86
2021/03/24 10:26:30;;;;;;;22.63;15.00;;;9.30;70.20;;;8.82;50.68;95566.72;5037375;28;20301;-86
2021/03/24 10:29:08;;;;;;;26.27;15.95;;;9.40;69.50;;;8.76;49.92;95557.75;5017733;28;20679;-86
2021/03/24 10:31:44;;;;;;;25.80;16.33;;;9.30;69.70;;;8.75;50.29;95558.75;5034533;28;20278;-86
2021/03/24 10:34:28;;;;;;;26.98;16.27;;;9.30;69.80;;;8.75;50.61;95563.13;5039005;28;20204;-85
2021/03/24 10:37:21;;;;;;;27.08;16.60;;;9.30;69.90;;;8.76;50.49;95565.59;5026097;28;20295;-84
2021/03/24 10:40:05;;;;;;;27.55;17.08;;;9.30;69.90;;;8.73;50.13;95554.66;5055191;28;20227;-85
2021/03/24 10:43:00;;;;;;;31.15;17.75;;;9.30;69.70;;;8.77;50.53;95556.75;5028957;28;20216;-85
2021/03/24 10:45:36;;;;;;;28.00;18.20;;;9.30;69.60;;;8.77;49.88;95546.28;5022077;28;20235;-84
2021/03/24 10:48:30;;;;;;;30.92;18.75;;;9.30;69.40;;;8.85;49.95;95553.34;5037633;28;20211;-85
2021/03/24 10:51:11;;;;;;;27.23;17.30;;;9.30;69.40;;;8.86;49.61;95547.13;5034299;28;20258;-85
2021/03/24 10:53:38;;;;;;;27.48;17.20;;;9.40;69.40;;;8.93;50.12;95542.84;5064273;28;20323;-85
2021/03/24 10:56:44;;;;;;;30.83;18.13;;;9.40;69.70;;;9.03;49.65;95534.81;5050851;28;20236;-85
2021/03/24 10:59:29;;;;;;;27.65;17.63;;;9.50;69.70;;;9.05;49.78;95538.09;5043070;28;20196;-85
2021/03/24 11:02:27;;;;;;;29.38;18.67;;;9.50;69.40;;;9.11;49.79;95536.63;5017921;28;20223;-85
2021/03/24 11:05:14;;;;;;;34.22;17.80;;;9.60;69.70;;;9.19;50.16;95541.84;5017534;28;20316;-85
2021/03/24 11:07:57;;;;;;;27.40;17.20;;;9.60;69.60;;;9.24;50.41;95541.31;5033603;28;20240;-86
2021/03/24 11:10:56;;;;;;;30.08;18.98;;;9.60;69.60;;;9.25;49.75;95533.31;5034376;28;20193;-86
2021/03/24 11:13:41;;;;;;;31.73;19.40;;;9.70;69.50;;;9.25;49.58;95530.69;5052306;28;20638;-85
2021/03/24 11:16:26;;;;;;;25.50;16.90;;;9.80;69.20;;;9.25;50.10;95527.25;5017544;28;20279;-87
2021/03/24 11:19:09;;;;;;;31.55;19.80;;;9.80;69.50;;;9.23;49.73;95535.28;5018114;28;20250;-86
2021/03/24 11:21:47;;;;;;;25.60;17.38;;;9.80;69.20;;;9.26;50.16;95537.56;5014953;28;20228;-86
2021/03/24 11:24:52;;;;;;;33.65;19.73;;;9.80;69.50;;;9.23;49.29;95545.75;5052843;28;20291;-86